Terminal Aerodrome Forecast
Issued by NWS Mt. Holly, NJ

Home | Current Version | Previous Version | Text Only | Print | Product List | Glossary On
Versions: 1 2 3 4 5 6 7 8 9 10 11 12 13 14 15 16 17 18 19 20 21 22 23
000
FTUS41 KPHI 180500
TAFRDG
TAF
KRDG 180528Z 1806/1906 15005KT P6SM SCT020
      TEMPO 1806/1807 BKN020
     FM180700 VRB03KT P6SM OVC020
     FM181400 VRB03KT P6SM SCT025 BKN250
     FM181800 19006KT P6SM OVC200=

USA.gov is the U.S. government's official web portal to all federal, state and local government web resources and services.